Pagina principală
METAR-TAF:

METAR-TAF

Aeroporturi :

Hill City Municipal Airport

Hill City, Kansas, Statele Unite ale Americii

Latitudine: 39-22-29N, longitudine: 099-49-47W, elevație: 678 m

Observații meteo curente

Raportul a fost făcut în urmă cu 22 de minute, la 13:31 UTC
Vânt 19 kt de la Nord/Nord-est cu rafale de până la 27 kt
Temperatură 5°C
Umiditate 75%
Presiune 1022 hPa
Vizibilitate: 16.1 km
Total acoperit la o înălțime de 1500 picior

METAR: KHLC 181331Z AUTO 02019G27KT 10SM OVC015 05/01 A3019 RMK AO2 PK WND 01034/1310 T00500011

Ora: 08:53 (13:53 UTC)


TAF: lipsă

Observații și prognoze meteo pentru peste 4.000 de aeroporturi (rapoarte METAR și TAF).

Stațiile disponibile sunt reprezentate pe hartă prin puncte galbene și roșii.

Țineți indicatorul mouse-ului pe punctul dorit pentru a vedea denumirea stației.

Apoi, faceți clic pentru a vedea observațiile și prognozele meteorologice.

Pentru a schimba harta: Pentru mărire, faceți clic pe butoanele verzi cu cruce neagră; pentru micșorare, pe butonul verde cu o liniuță; pentru hărți învecinate, pe săgețile verzi.


METAR-TAF: